sensor_id;sensor_type;location;lat;lon;timestamp;temperature;humidity
75705;DHT22;70013;44.726;37.760;2023-05-14T00:00:11;18.26;57.10
75705;DHT22;70013;44.726;37.760;2023-05-14T00:01:13;18.24;56.45
75705;DHT22;70013;44.726;37.760;2023-05-14T00:02:14;18.24;55.23
75705;DHT22;70013;44.726;37.760;2023-05-14T00:03:16;18.22;55.05
75705;DHT22;70013;44.726;37.760;2023-05-14T00:04:18;18.21;54.47
75705;DHT22;70013;44.726;37.760;2023-05-14T00:05:20;18.20;54.57
75705;DHT22;70013;44.726;37.760;2023-05-14T00:06:21;18.19;56.19
75705;DHT22;70013;44.726;37.760;2023-05-14T00:07:23;18.19;55.43
75705;DHT22;70013;44.726;37.760;2023-05-14T00:08:30;18.19;55.23
75705;DHT22;70013;44.726;37.760;2023-05-14T00:09:32;18.19;56.17
75705;DHT22;70013;44.726;37.760;2023-05-14T00:10:35;18.19;55.89
75705;DHT22;70013;44.726;37.760;2023-05-14T00:11:37;18.20;55.84
75705;DHT22;70013;44.726;37.760;2023-05-14T00:12:38;18.19;55.71
75705;DHT22;70013;44.726;37.760;2023-05-14T00:13:40;18.19;56.33
75705;DHT22;70013;44.726;37.760;2023-05-14T00:14:42;18.17;55.62
75705;DHT22;70013;44.726;37.760;2023-05-14T00:15:43;18.14;55.14
75705;DHT22;70013;44.726;37.760;2023-05-14T00:16:45;18.11;55.56
75705;DHT22;70013;44.726;37.760;2023-05-14T00:17:47;18.11;55.41
75705;DHT22;70013;44.726;37.760;2023-05-14T00:18:48;18.08;55.45
75705;DHT22;70013;44.726;37.760;2023-05-14T00:19:50;18.09;55.75
75705;DHT22;70013;44.726;37.760;2023-05-14T00:20:52;18.05;55.80
75705;DHT22;70013;44.726;37.760;2023-05-14T00:21:55;18.04;54.96
75705;DHT22;70013;44.726;37.760;2023-05-14T00:22:56;18.05;55.32
75705;DHT22;70013;44.726;37.760;2023-05-14T00:23:58;18.04;55.30
75705;DHT22;70013;44.726;37.760;2023-05-14T00:25:00;17.99;54.78
75705;DHT22;70013;44.726;37.760;2023-05-14T00:26:01;17.99;54.20
75705;DHT22;70013;44.726;37.760;2023-05-14T00:27:03;18.00;54.85
75705;DHT22;70013;44.726;37.760;2023-05-14T00:28:05;17.97;54.97
75705;DHT22;70013;44.726;37.760;2023-05-14T00:29:07;17.98;54.59
75705;DHT22;70013;44.726;37.760;2023-05-14T00:30:09;17.97;54.29
75705;DHT22;70013;44.726;37.760;2023-05-14T00:31:12;17.96;55.55
75705;DHT22;70013;44.726;37.760;2023-05-14T00:32:14;17.97;54.86
75705;DHT22;70013;44.726;37.760;2023-05-14T00:33:16;17.97;56.55
75705;DHT22;70013;44.726;37.760;2023-05-14T00:34:18;17.96;56.48
75705;DHT22;70013;44.726;37.760;2023-05-14T00:35:19;17.96;57.74
75705;DHT22;70013;44.726;37.760;2023-05-14T00:36:21;17.98;55.22
75705;DHT22;70013;44.726;37.760;2023-05-14T00:37:23;17.99;57.67
75705;DHT22;70013;44.726;37.760;2023-05-14T00:38:25;17.97;56.69
75705;DHT22;70013;44.726;37.760;2023-05-14T00:39:28;17.98;57.72
75705;DHT22;70013;44.726;37.760;2023-05-14T00:40:30;17.99;56.27
75705;DHT22;70013;44.726;37.760;2023-05-14T00:41:32;18.00;56.26
75705;DHT22;70013;44.726;37.760;2023-05-14T00:42:33;18.00;54.84
75705;DHT22;70013;44.726;37.760;2023-05-14T00:43:35;17.99;55.78
75705;DHT22;70013;44.726;37.760;2023-05-14T00:44:36;18.00;54.89
75705;DHT22;70013;44.726;37.760;2023-05-14T00:45:38;17.99;54.73
75705;DHT22;70013;44.726;37.760;2023-05-14T00:46:40;17.96;54.28
75705;DHT22;70013;44.726;37.760;2023-05-14T00:47:43;17.96;56.13
75705;DHT22;70013;44.726;37.760;2023-05-14T00:48:45;17.96;56.16
75705;DHT22;70013;44.726;37.760;2023-05-14T00:49:47;17.95;54.96
75705;DHT22;70013;44.726;37.760;2023-05-14T00:50:49;17.94;54.82
75705;DHT22;70013;44.726;37.760;2023-05-14T00:51:52;17.94;56.77
75705;DHT22;70013;44.726;37.760;2023-05-14T00:52:53;17.94;55.02
75705;DHT22;70013;44.726;37.760;2023-05-14T00:53:55;17.96;54.95
75705;DHT22;70013;44.726;37.760;2023-05-14T00:54:57;17.95;55.67
75705;DHT22;70013;44.726;37.760;2023-05-14T00:55:59;17.95;54.97
75705;DHT22;70013;44.726;37.760;2023-05-14T00:57:03;17.90;54.12
75705;DHT22;70013;44.726;37.760;2023-05-14T00:58:13;17.90;54.36
75705;DHT22;70013;44.726;37.760;2023-05-14T00:59:15;17.91;56.22
75705;DHT22;70013;44.726;37.760;2023-05-14T01:00:17;17.91;56.13
75705;DHT22;70013;44.726;37.760;2023-05-14T01:01:19;17.92;55.97
75705;DHT22;70013;44.726;37.760;2023-05-14T01:02:20;17.92;55.87
75705;DHT22;70013;44.726;37.760;2023-05-14T01:03:22;17.93;55.95
75705;DHT22;70013;44.726;37.760;2023-05-14T01:04:24;17.93;56.49
75705;DHT22;70013;44.726;37.760;2023-05-14T01:06:58;17.96;55.79
75705;DHT22;70013;44.726;37.760;2023-05-14T01:08:40;17.96;54.17
75705;DHT22;70013;44.726;37.760;2023-05-14T01:10:55;17.94;57.15
75705;DHT22;70013;44.726;37.760;2023-05-14T01:12:09;17.95;57.18
75705;DHT22;70013;44.726;37.760;2023-05-14T01:13:25;17.95;58.29
75705;DHT22;70013;44.726;37.760;2023-05-14T01:15:06;17.95;57.43
75705;DHT22;70013;44.726;37.760;2023-05-14T01:16:09;17.94;56.60
75705;DHT22;70013;44.726;37.760;2023-05-14T01:17:13;17.92;55.02
75705;DHT22;70013;44.726;37.760;2023-05-14T01:18:17;17.90;56.68
75705;DHT22;70013;44.726;37.760;2023-05-14T01:19:49;17.90;57.06
75705;DHT22;70013;44.726;37.760;2023-05-14T01:20:53;17.87;55.79
75705;DHT22;70013;44.726;37.760;2023-05-14T01:21:55;17.85;55.49
75705;DHT22;70013;44.726;37.760;2023-05-14T01:22:57;17.84;55.13
75705;DHT22;70013;44.726;37.760;2023-05-14T01:23:58;17.82;55.09
75705;DHT22;70013;44.726;37.760;2023-05-14T01:24:59;17.82;56.06
75705;DHT22;70013;44.726;37.760;2023-05-14T01:26:01;17.81;56.44
75705;DHT22;70013;44.726;37.760;2023-05-14T01:27:30;17.82;55.49
75705;DHT22;70013;44.726;37.760;2023-05-14T01:28:34;17.79;54.91
75705;DHT22;70013;44.726;37.760;2023-05-14T01:29:39;17.80;56.67
75705;DHT22;70013;44.726;37.760;2023-05-14T01:30:48;17.80;56.48
75705;DHT22;70013;44.726;37.760;2023-05-14T01:31:53;17.81;57.05
75705;DHT22;70013;44.726;37.760;2023-05-14T01:32:57;17.78;55.04
75705;DHT22;70013;44.726;37.760;2023-05-14T01:34:01;17.80;57.03
75705;DHT22;70013;44.726;37.760;2023-05-14T01:35:05;17.80;57.24
75705;DHT22;70013;44.726;37.760;2023-05-14T01:36:09;17.80;56.57
75705;DHT22;70013;44.726;37.760;2023-05-14T01:37:11;17.81;56.83
75705;DHT22;70013;44.726;37.760;2023-05-14T01:38:15;17.80;57.51
75705;DHT22;70013;44.726;37.760;2023-05-14T01:39:18;17.81;56.77
75705;DHT22;70013;44.726;37.760;2023-05-14T01:40:20;17.81;55.85
75705;DHT22;70013;44.726;37.760;2023-05-14T01:41:23;17.81;58.09
75705;DHT22;70013;44.726;37.760;2023-05-14T01:42:25;17.82;57.39
75705;DHT22;70013;44.726;37.760;2023-05-14T01:43:28;17.81;57.40
75705;DHT22;70013;44.726;37.760;2023-05-14T01:44:31;17.83;58.29
75705;DHT22;70013;44.726;37.760;2023-05-14T01:45:34;17.84;57.81
75705;DHT22;70013;44.726;37.760;2023-05-14T01:46:36;17.83;56.39
75705;DHT22;70013;44.726;37.760;2023-05-14T01:47:37;17.83;56.52
75705;DHT22;70013;44.726;37.760;2023-05-14T01:48:39;17.82;55.99
75705;DHT22;70013;44.726;37.760;2023-05-14T01:49:41;17.81;57.93
75705;DHT22;70013;44.726;37.760;2023-05-14T01:50:42;17.81;57.58
75705;DHT22;70013;44.726;37.760;2023-05-14T01:51:44;17.81;58.53
75705;DHT22;70013;44.726;37.760;2023-05-14T01:52:45;17.81;56.61
75705;DHT22;70013;44.726;37.760;2023-05-14T01:53:48;17.82;56.81
75705;DHT22;70013;44.726;37.760;2023-05-14T01:54:49;17.79;56.20
75705;DHT22;70013;44.726;37.760;2023-05-14T01:55:51;17.79;55.59
75705;DHT22;70013;44.726;37.760;2023-05-14T01:56:52;17.76;56.08
75705;DHT22;70013;44.726;37.760;2023-05-14T01:57:53;17.77;58.62
75705;DHT22;70013;44.726;37.760;2023-05-14T01:58:55;17.76;57.17
75705;DHT22;70013;44.726;37.760;2023-05-14T01:59:57;17.74;57.06
75705;DHT22;70013;44.726;37.760;2023-05-14T02:00:59;17.76;57.22
75705;DHT22;70013;44.726;37.760;2023-05-14T02:02:00;17.76;55.64
75705;DHT22;70013;44.726;37.760;2023-05-14T02:03:01;17.74;57.83
75705;DHT22;70013;44.726;37.760;2023-05-14T02:04:03;17.77;56.52
75705;DHT22;70013;44.726;37.760;2023-05-14T02:05:05;17.78;57.18
75705;DHT22;70013;44.726;37.760;2023-05-14T02:06:06;17.78;57.19
75705;DHT22;70013;44.726;37.760;2023-05-14T02:07:08;17.77;56.82
75705;DHT22;70013;44.726;37.760;2023-05-14T02:08:09;17.78;56.62
75705;DHT22;70013;44.726;37.760;2023-05-14T02:09:10;17.78;57.45
75705;DHT22;70013;44.726;37.760;2023-05-14T02:10:12;17.76;56.42
75705;DHT22;70013;44.726;37.760;2023-05-14T02:11:13;17.73;56.26
75705;DHT22;70013;44.726;37.760;2023-05-14T02:12:14;17.72;56.05
75705;DHT22;70013;44.726;37.760;2023-05-14T02:13:16;17.69;58.15
75705;DHT22;70013;44.726;37.760;2023-05-14T02:14:17;17.70;58.00
75705;DHT22;70013;44.726;37.760;2023-05-14T02:15:18;17.72;58.30
75705;DHT22;70013;44.726;37.760;2023-05-14T02:16:20;17.70;57.43
75705;DHT22;70013;44.726;37.760;2023-05-14T02:17:21;17.72;57.43
75705;DHT22;70013;44.726;37.760;2023-05-14T02:18:22;17.72;57.52
75705;DHT22;70013;44.726;37.760;2023-05-14T02:19:24;17.70;57.29
75705;DHT22;70013;44.726;37.760;2023-05-14T02:20:25;17.69;56.32
75705;DHT22;70013;44.726;37.760;2023-05-14T02:21:27;17.69;58.12
75705;DHT22;70013;44.726;37.760;2023-05-14T02:22:29;17.70;57.58
75705;DHT22;70013;44.726;37.760;2023-05-14T02:23:30;17.69;57.75
75705;DHT22;70013;44.726;37.760;2023-05-14T02:24:32;17.70;56.82
75705;DHT22;70013;44.726;37.760;2023-05-14T02:25:34;17.66;56.48
75705;DHT22;70013;44.726;37.760;2023-05-14T02:26:35;17.65;56.93
75705;DHT22;70013;44.726;37.760;2023-05-14T02:27:37;17.68;57.35
75705;DHT22;70013;44.726;37.760;2023-05-14T02:28:38;17.66;56.23
75705;DHT22;70013;44.726;37.760;2023-05-14T02:29:39;17.62;56.33
75705;DHT22;70013;44.726;37.760;2023-05-14T02:30:40;17.63;56.29
75705;DHT22;70013;44.726;37.760;2023-05-14T02:31:42;17.63;56.79
75705;DHT22;70013;44.726;37.760;2023-05-14T02:32:43;17.66;58.41
75705;DHT22;70013;44.726;37.760;2023-05-14T02:33:44;17.67;58.27
75705;DHT22;70013;44.726;37.760;2023-05-14T02:34:45;17.67;57.48
75705;DHT22;70013;44.726;37.760;2023-05-14T02:35:47;17.68;57.51
75705;DHT22;70013;44.726;37.760;2023-05-14T02:36:48;17.67;56.06
75705;DHT22;70013;44.726;37.760;2023-05-14T02:37:49;17.68;58.70
75705;DHT22;70013;44.726;37.760;2023-05-14T02:38:50;17.72;58.74
75705;DHT22;70013;44.726;37.760;2023-05-14T02:39:51;17.74;58.93
75705;DHT22;70013;44.726;37.760;2023-05-14T02:40:53;17.75;58.71
75705;DHT22;70013;44.726;37.760;2023-05-14T02:41:54;17.76;57.94
75705;DHT22;70013;44.726;37.760;2023-05-14T02:42:55;17.81;57.69
75705;DHT22;70013;44.726;37.760;2023-05-14T02:43:56;17.81;56.11
75705;DHT22;70013;44.726;37.760;2023-05-14T02:44:58;17.81;57.58
75705;DHT22;70013;44.726;37.760;2023-05-14T02:46:00;17.83;56.74
75705;DHT22;70013;44.726;37.760;2023-05-14T02:47:01;17.87;57.81
75705;DHT22;70013;44.726;37.760;2023-05-14T02:48:03;17.82;55.94
75705;DHT22;70013;44.726;37.760;2023-05-14T02:49:04;17.83;55.92
75705;DHT22;70013;44.726;37.760;2023-05-14T02:50:06;17.87;57.64
75705;DHT22;70013;44.726;37.760;2023-05-14T02:51:07;17.89;57.39
75705;DHT22;70013;44.726;37.760;2023-05-14T02:52:09;17.92;57.83
75705;DHT22;70013;44.726;37.760;2023-05-14T02:53:10;17.89;56.74
75705;DHT22;70013;44.726;37.760;2023-05-14T02:54:11;17.90;56.12
75705;DHT22;70013;44.726;37.760;2023-05-14T02:55:12;17.91;57.96
75705;DHT22;70013;44.726;37.760;2023-05-14T02:56:14;17.94;56.03
75705;DHT22;70013;44.726;37.760;2023-05-14T02:57:15;17.95;58.67
75705;DHT22;70013;44.726;37.760;2023-05-14T02:58:16;17.93;57.93
75705;DHT22;70013;44.726;37.760;2023-05-14T02:59:17;17.97;56.81
75705;DHT22;70013;44.726;37.760;2023-05-14T03:00:18;17.94;56.29
75705;DHT22;70013;44.726;37.760;2023-05-14T03:01:20;17.94;56.61
75705;DHT22;70013;44.726;37.760;2023-05-14T03:02:21;17.98;57.08
75705;DHT22;70013;44.726;37.760;2023-05-14T03:03:23;17.99;57.01
75705;DHT22;70013;44.726;37.760;2023-05-14T03:04:24;18.02;56.84
75705;DHT22;70013;44.726;37.760;2023-05-14T03:05:25;18.00;56.19
75705;DHT22;70013;44.726;37.760;2023-05-14T03:06:26;17.99;55.71
75705;DHT22;70013;44.726;37.760;2023-05-14T03:07:27;18.00;56.94
75705;DHT22;70013;44.726;37.760;2023-05-14T03:08:29;18.03;58.39
75705;DHT22;70013;44.726;37.760;2023-05-14T03:09:30;18.03;56.52
75705;DHT22;70013;44.726;37.760;2023-05-14T03:10:31;18.05;56.78
75705;DHT22;70013;44.726;37.760;2023-05-14T03:11:33;18.04;56.54
75705;DHT22;70013;44.726;37.760;2023-05-14T03:12:34;18.04;57.45
75705;DHT22;70013;44.726;37.760;2023-05-14T03:13:35;18.07;55.95
75705;DHT22;70013;44.726;37.760;2023-05-14T03:14:36;18.07;55.97
75705;DHT22;70013;44.726;37.760;2023-05-14T03:15:37;18.08;56.63
75705;DHT22;70013;44.726;37.760;2023-05-14T03:16:39;18.10;56.47
75705;DHT22;70013;44.726;37.760;2023-05-14T03:17:41;18.08;55.87
75705;DHT22;70013;44.726;37.760;2023-05-14T03:18:43;18.12;56.95
75705;DHT22;70013;44.726;37.760;2023-05-14T03:19:44;18.15;59.18
75705;DHT22;70013;44.726;37.760;2023-05-14T03:20:45;18.19;57.16
75705;DHT22;70013;44.726;37.760;2023-05-14T03:21:47;18.21;58.29
75705;DHT22;70013;44.726;37.760;2023-05-14T03:22:49;18.22;58.51
75705;DHT22;70013;44.726;37.760;2023-05-14T03:23:51;18.26;58.56
75705;DHT22;70013;44.726;37.760;2023-05-14T03:24:52;18.27;57.42
75705;DHT22;70013;44.726;37.760;2023-05-14T03:25:54;18.29;58.48
75705;DHT22;70013;44.726;37.760;2023-05-14T03:26:55;18.30;56.65
75705;DHT22;70013;44.726;37.760;2023-05-14T03:27:56;18.33;57.95
75705;DHT22;70013;44.726;37.760;2023-05-14T03:28:57;18.36;57.49
75705;DHT22;70013;44.726;37.760;2023-05-14T03:29:59;18.38;56.53
75705;DHT22;70013;44.726;37.760;2023-05-14T03:31:00;18.38;57.84
75705;DHT22;70013;44.726;37.760;2023-05-14T03:32:01;18.41;57.70
75705;DHT22;70013;44.726;37.760;2023-05-14T03:33:03;18.41;56.42
75705;DHT22;70013;44.726;37.760;2023-05-14T03:34:04;18.42;57.38
75705;DHT22;70013;44.726;37.760;2023-05-14T03:35:05;18.49;57.35
75705;DHT22;70013;44.726;37.760;2023-05-14T03:36:07;18.49;57.68
75705;DHT22;70013;44.726;37.760;2023-05-14T03:37:09;18.54;57.55
75705;DHT22;70013;44.726;37.760;2023-05-14T03:38:10;18.54;56.54
75705;DHT22;70013;44.726;37.760;2023-05-14T03:39:11;18.57;57.51
75705;DHT22;70013;44.726;37.760;2023-05-14T03:40:15;18.58;56.39
75705;DHT22;70013;44.726;37.760;2023-05-14T03:41:17;18.63;57.00
75705;DHT22;70013;44.726;37.760;2023-05-14T03:42:19;18.65;56.08
75705;DHT22;70013;44.726;37.760;2023-05-14T03:43:21;18.68;57.50
75705;DHT22;70013;44.726;37.760;2023-05-14T03:44:24;18.72;57.04
75705;DHT22;70013;44.726;37.760;2023-05-14T03:45:25;18.73;56.63
75705;DHT22;70013;44.726;37.760;2023-05-14T03:46:28;18.76;57.06
75705;DHT22;70013;44.726;37.760;2023-05-14T03:47:30;18.79;57.54
75705;DHT22;70013;44.726;37.760;2023-05-14T03:48:34;18.81;57.12
75705;DHT22;70013;44.726;37.760;2023-05-14T03:49:38;18.84;57.21
75705;DHT22;70013;44.726;37.760;2023-05-14T03:50:40;18.89;57.39
75705;DHT22;70013;44.726;37.760;2023-05-14T03:51:42;18.93;57.29
75705;DHT22;70013;44.726;37.760;2023-05-14T03:52:43;18.96;56.16
75705;DHT22;70013;44.726;37.760;2023-05-14T03:53:44;19.00;56.59
75705;DHT22;70013;44.726;37.760;2023-05-14T03:54:47;19.03;56.97
75705;DHT22;70013;44.726;37.760;2023-05-14T03:55:49;19.07;56.93
75705;DHT22;70013;44.726;37.760;2023-05-14T03:56:50;19.12;55.67
75705;DHT22;70013;44.726;37.760;2023-05-14T03:57:52;19.17;55.74
75705;DHT22;70013;44.726;37.760;2023-05-14T03:58:53;19.20;55.52
75705;DHT22;70013;44.726;37.760;2023-05-14T03:59:55;19.26;55.39
75705;DHT22;70013;44.726;37.760;2023-05-14T04:00:58;19.33;54.05
75705;DHT22;70013;44.726;37.760;2023-05-14T04:02:00;19.36;54.25
75705;DHT22;70013;44.726;37.760;2023-05-14T04:03:01;19.42;54.62
75705;DHT22;70013;44.726;37.760;2023-05-14T04:04:02;19.45;53.66
75705;DHT22;70013;44.726;37.760;2023-05-14T04:05:04;19.48;54.32
75705;DHT22;70013;44.726;37.760;2023-05-14T04:06:05;19.51;54.15
75705;DHT22;70013;44.726;37.760;2023-05-14T04:07:06;19.55;54.94
75705;DHT22;70013;44.726;37.760;2023-05-14T04:08:08;19.59;54.10
75705;DHT22;70013;44.726;37.760;2023-05-14T04:09:09;19.68;53.94
75705;DHT22;70013;44.726;37.760;2023-05-14T04:10:11;19.71;53.86
75705;DHT22;70013;44.726;37.760;2023-05-14T04:11:13;19.73;53.12
75705;DHT22;70013;44.726;37.760;2023-05-14T04:12:14;19.82;52.89
75705;DHT22;70013;44.726;37.760;2023-05-14T04:13:15;19.85;53.76
75705;DHT22;70013;44.726;37.760;2023-05-14T04:14:17;19.89;55.30
75705;DHT22;70013;44.726;37.760;2023-05-14T04:15:19;19.94;53.00
75705;DHT22;70013;44.726;37.760;2023-05-14T04:16:20;19.97;52.82
75705;DHT22;70013;44.726;37.760;2023-05-14T04:17:22;20.02;53.18
75705;DHT22;70013;44.726;37.760;2023-05-14T04:18:23;20.10;52.46
75705;DHT22;70013;44.726;37.760;2023-05-14T04:19:25;20.17;50.99
75705;DHT22;70013;44.726;37.760;2023-05-14T04:20:26;20.24;51.18
75705;DHT22;70013;44.726;37.760;2023-05-14T04:21:27;20.30;50.63
75705;DHT22;70013;44.726;37.760;2023-05-14T04:22:29;20.39;50.69
75705;DHT22;70013;44.726;37.760;2023-05-14T04:23:30;20.45;50.07
75705;DHT22;70013;44.726;37.760;2023-05-14T04:24:32;20.50;49.61
75705;DHT22;70013;44.726;37.760;2023-05-14T04:25:33;20.58;49.38
75705;DHT22;70013;44.726;37.760;2023-05-14T04:26:35;20.64;48.82
75705;DHT22;70013;44.726;37.760;2023-05-14T04:27:36;20.72;48.92
75705;DHT22;70013;44.726;37.760;2023-05-14T04:28:38;20.78;48.04
75705;DHT22;70013;44.726;37.760;2023-05-14T04:29:39;20.86;48.07
75705;DHT22;70013;44.726;37.760;2023-05-14T04:30:40;20.91;48.37
75705;DHT22;70013;44.726;37.760;2023-05-14T04:31:42;20.98;47.34
75705;DHT22;70013;44.726;37.760;2023-05-14T04:32:43;21.03;47.47
75705;DHT22;70013;44.726;37.760;2023-05-14T04:33:45;21.06;47.90
75705;DHT22;70013;44.726;37.760;2023-05-14T04:34:46;21.10;47.69
75705;DHT22;70013;44.726;37.760;2023-05-14T04:35:47;21.09;48.13
75705;DHT22;70013;44.726;37.760;2023-05-14T04:36:49;21.18;48.76
75705;DHT22;70013;44.726;37.760;2023-05-14T04:37:51;21.22;48.50
75705;DHT22;70013;44.726;37.760;2023-05-14T04:38:52;21.25;48.08
75705;DHT22;70013;44.726;37.760;2023-05-14T04:39:53;21.32;50.34
75705;DHT22;70013;44.726;37.760;2023-05-14T04:40:55;21.39;46.57
75705;DHT22;70013;44.726;37.760;2023-05-14T04:41:56;21.46;46.47
75705;DHT22;70013;44.726;37.760;2023-05-14T04:42:58;21.51;45.84
75705;DHT22;70013;44.726;37.760;2023-05-14T04:43:59;21.57;45.61
75705;DHT22;70013;44.726;37.760;2023-05-14T04:45:04;21.64;45.20
75705;DHT22;70013;44.726;37.760;2023-05-14T04:46:06;21.70;44.88
75705;DHT22;70013;44.726;37.760;2023-05-14T04:47:07;21.78;44.70
75705;DHT22;70013;44.726;37.760;2023-05-14T04:48:08;21.83;44.21
75705;DHT22;70013;44.726;37.760;2023-05-14T04:49:09;21.89;44.00
75705;DHT22;70013;44.726;37.760;2023-05-14T04:50:10;21.95;44.14
75705;DHT22;70013;44.726;37.760;2023-05-14T04:51:12;22.03;43.90
75705;DHT22;70013;44.726;37.760;2023-05-14T04:52:13;22.11;43.57
75705;DHT22;70013;44.726;37.760;2023-05-14T04:53:14;22.21;43.41
75705;DHT22;70013;44.726;37.760;2023-05-14T04:54:16;22.32;43.77
75705;DHT22;70013;44.726;37.760;2023-05-14T04:55:17;22.42;43.74
75705;DHT22;70013;44.726;37.760;2023-05-14T04:56:18;22.52;43.27
75705;DHT22;70013;44.726;37.760;2023-05-14T04:57:19;22.66;43.21
75705;DHT22;70013;44.726;37.760;2023-05-14T04:58:20;22.79;43.13
75705;DHT22;70013;44.726;37.760;2023-05-14T04:59:23;22.94;42.71
75705;DHT22;70013;44.726;37.760;2023-05-14T05:00:24;23.07;41.85
75705;DHT22;70013;44.726;37.760;2023-05-14T05:01:25;23.23;41.71
75705;DHT22;70013;44.726;37.760;2023-05-14T05:02:26;23.38;41.43
75705;DHT22;70013;44.726;37.760;2023-05-14T05:03:28;23.54;40.82
75705;DHT22;70013;44.726;37.760;2023-05-14T05:04:29;23.67;41.07
75705;DHT22;70013;44.726;37.760;2023-05-14T05:05:30;23.85;41.01
75705;DHT22;70013;44.726;37.760;2023-05-14T05:06:31;24.00;40.26
75705;DHT22;70013;44.726;37.760;2023-05-14T05:07:32;24.15;39.63
75705;DHT22;70013;44.726;37.760;2023-05-14T05:08:35;24.29;39.12
75705;DHT22;70013;44.726;37.760;2023-05-14T05:09:36;24.43;38.31
75705;DHT22;70013;44.726;37.760;2023-05-14T05:10:37;24.58;37.90
75705;DHT22;70013;44.726;37.760;2023-05-14T05:11:38;24.70;36.94
75705;DHT22;70013;44.726;37.760;2023-05-14T05:12:40;24.82;36.79
75705;DHT22;70013;44.726;37.760;2023-05-14T05:13:41;24.93;35.98
75705;DHT22;70013;44.726;37.760;2023-05-14T05:14:42;25.05;35.89
75705;DHT22;70013;44.726;37.760;2023-05-14T05:15:43;25.17;35.82
75705;DHT22;70013;44.726;37.760;2023-05-14T05:16:45;25.28;35.32
75705;DHT22;70013;44.726;37.760;2023-05-14T05:17:47;25.40;35.37
75705;DHT22;70013;44.726;37.760;2023-05-14T05:18:48;25.54;35.54
75705;DHT22;70013;44.726;37.760;2023-05-14T05:19:49;25.65;35.20
75705;DHT22;70013;44.726;37.760;2023-05-14T05:20:51;25.77;34.65
75705;DHT22;70013;44.726;37.760;2023-05-14T05:21:52;25.88;35.81
75705;DHT22;70013;44.726;37.760;2023-05-14T05:22:53;25.99;34.48
75705;DHT22;70013;44.726;37.760;2023-05-14T05:23:54;26.10;34.41
75705;DHT22;70013;44.726;37.760;2023-05-14T05:24:56;26.25;34.33
75705;DHT22;70013;44.726;37.760;2023-05-14T05:25:58;26.36;33.85
75705;DHT22;70013;44.726;37.760;2023-05-14T05:26:59;26.50;33.44
75705;DHT22;70013;44.726;37.760;2023-05-14T05:28:00;26.61;34.25
75705;DHT22;70013;44.726;37.760;2023-05-14T05:29:02;26.73;33.57
75705;DHT22;70013;44.726;37.760;2023-05-14T05:30:04;26.87;34.35
75705;DHT22;70013;44.726;37.760;2023-05-14T05:31:06;26.98;34.15
75705;DHT22;70013;44.726;37.760;2023-05-14T05:32:07;27.11;32.69
75705;DHT22;70013;44.726;37.760;2023-05-14T05:33:09;27.22;31.81
75705;DHT22;70013;44.726;37.760;2023-05-14T05:34:10;27.32;30.83
75705;DHT22;70013;44.726;37.760;2023-05-14T05:35:11;27.45;31.01
75705;DHT22;70013;44.726;37.760;2023-05-14T05:36:12;27.57;31.25
75705;DHT22;70013;44.726;37.760;2023-05-14T05:37:14;27.67;29.84
75705;DHT22;70013;44.726;37.760;2023-05-14T05:38:15;27.75;29.87
75705;DHT22;70013;44.726;37.760;2023-05-14T05:39:18;27.89;29.80
75705;DHT22;70013;44.726;37.760;2023-05-14T05:40:19;28.03;29.18
75705;DHT22;70013;44.726;37.760;2023-05-14T05:41:20;28.17;28.78
75705;DHT22;70013;44.726;37.760;2023-05-14T05:42:22;28.32;28.09
75705;DHT22;70013;44.726;37.760;2023-05-14T05:43:23;28.47;28.15
75705;DHT22;70013;44.726;37.760;2023-05-14T05:44:24;28.69;30.13
75705;DHT22;70013;44.726;37.760;2023-05-14T05:45:25;28.80;31.01
75705;DHT22;70013;44.726;37.760;2023-05-14T05:46:27;28.97;33.35
75705;DHT22;70013;44.726;37.760;2023-05-14T05:47:28;29.05;33.08
75705;DHT22;70013;44.726;37.760;2023-05-14T05:48:29;29.20;32.88
75705;DHT22;70013;44.726;37.760;2023-05-14T05:49:31;29.36;34.60
75705;DHT22;70013;44.726;37.760;2023-05-14T05:50:32;29.63;32.25
75705;DHT22;70013;44.726;37.760;2023-05-14T05:51:34;30.07;30.82
75705;DHT22;70013;44.726;37.760;2023-05-14T05:52:35;30.59;27.10
75705;DHT22;70013;44.726;37.760;2023-05-14T05:53:36;31.11;25.75
75705;DHT22;70013;44.726;37.760;2023-05-14T05:54:38;31.54;25.35
75705;DHT22;70013;44.726;37.760;2023-05-14T05:55:39;31.92;24.04
75705;DHT22;70013;44.726;37.760;2023-05-14T05:56:41;32.18;23.17
75705;DHT22;70013;44.726;37.760;2023-05-14T05:57:42;32.46;28.92
75705;DHT22;70013;44.726;37.760;2023-05-14T05:58:43;32.62;26.17
75705;DHT22;70013;44.726;37.760;2023-05-14T05:59:44;32.81;25.17
75705;DHT22;70013;44.726;37.760;2023-05-14T06:00:46;33.02;24.74
75705;DHT22;70013;44.726;37.760;2023-05-14T06:01:47;33.29;25.04
75705;DHT22;70013;44.726;37.760;2023-05-14T06:02:48;33.48;25.58
75705;DHT22;70013;44.726;37.760;2023-05-14T06:03:49;33.63;24.91
75705;DHT22;70013;44.726;37.760;2023-05-14T06:04:50;33.77;24.36
75705;DHT22;70013;44.726;37.760;2023-05-14T06:05:57;33.78;25.27
75705;DHT22;70013;44.726;37.760;2023-05-14T06:06:58;33.87;25.30
75705;DHT22;70013;44.726;37.760;2023-05-14T06:07:59;33.88;24.69
75705;DHT22;70013;44.726;37.760;2023-05-14T06:09:01;33.94;20.94
75705;DHT22;70013;44.726;37.760;2023-05-14T06:10:02;34.00;21.77
75705;DHT22;70013;44.726;37.760;2023-05-14T06:11:03;34.10;22.59
75705;DHT22;70013;44.726;37.760;2023-05-14T06:12:04;34.20;22.40
75705;DHT22;70013;44.726;37.760;2023-05-14T06:13:06;34.26;22.39
75705;DHT22;70013;44.726;37.760;2023-05-14T06:14:07;34.23;20.73
75705;DHT22;70013;44.726;37.760;2023-05-14T06:15:08;34.16;19.68
75705;DHT22;70013;44.726;37.760;2023-05-14T06:16:10;34.15;19.84
75705;DHT22;70013;44.726;37.760;2023-05-14T06:17:11;34.15;22.33
75705;DHT22;70013;44.726;37.760;2023-05-14T06:18:12;34.16;20.83
75705;DHT22;70013;44.726;37.760;2023-05-14T06:19:13;34.05;23.08
75705;DHT22;70013;44.726;37.760;2023-05-14T06:20:15;34.05;23.11
75705;DHT22;70013;44.726;37.760;2023-05-14T06:21:16;34.00;22.60
75705;DHT22;70013;44.726;37.760;2023-05-14T06:22:18;34.00;25.23
75705;DHT22;70013;44.726;37.760;2023-05-14T06:23:19;34.01;23.97
75705;DHT22;70013;44.726;37.760;2023-05-14T06:24:20;34.03;23.21
75705;DHT22;70013;44.726;37.760;2023-05-14T06:25:21;34.02;21.67
75705;DHT22;70013;44.726;37.760;2023-05-14T06:26:22;34.00;22.68
75705;DHT22;70013;44.726;37.760;2023-05-14T06:27:24;34.00;22.27
75705;DHT22;70013;44.726;37.760;2023-05-14T06:28:25;33.96;21.56